首页
METAR-TAF:

METAR-TAF

机场 :

Quaqtaq, 魁北克, 加拿大

纬度: 61-03N, 经度: 069-38W, 海拔: 30米

当前天气观测

该预报发布于3小时和25分钟前的21:00 UTC
风速12节,风向西转西北
温度 -19°C
湿度 64%
气压 1013 hPa
能見度: 24.1公里
少量云层高于9000英尺
低吹雪

METAR: CYHA 182100Z 29012KT 15SM DRSN FEW090 M19/M24 A2991 RMK SN1AS1 AS TR SNW CVR/TR LOOSE LAST STFD OBS/NEXT 191200UTC SLP134

时间: 20:25 (00:25 UTC)

预报

该预报发布于3小时和48分钟前的20:37 UTC
预报有效从18日的 20点(UTC)到 18日的 21点(UTC)
风速14节,风向西转西北,有时为24节阵风
多云层高于1500英尺
小雪, 轻雾
短暂存在
从 18日的 20点(UTC)到 18日的 21点(UTC)
能見度: 9.7公里
散云层高于1500英尺
轻雾
几率 40%
从 18日的 20点(UTC)到 18日的 21点(UTC)
轻雾

TAF: CYHA 182037Z 1820/1821 30014G24KT 21/2SM -SN BR BKN015 TEMPO 1820/1821 6SM BR SCT015 PROB40 1820/1821 11/2SM BR RMK NXT FCST WILL BE ISSUED AT 191345Z

超过4000个机场的气象观测和天气预报(METAR&TAF报告)。

可查询的气象台以黄色和红色小点在地图上表示。

将鼠标移到小点上方,可查看气象台名称。

然后点击查看天气观测和预报。

如需切换地图:点击带黑十字的绿色按钮放大地图;点击带横线的绿色按钮缩小地图;或者点击绿色箭头查看邻近地区的地图。


METAR-TAF: